Terminal Aerodrome Forecast
Issued by NWS

Home | Current Version | Previous Version | Text Only | Print | Product List | Glossary On
Versions: 1 2 3 4 5 6 7 8 9 10 11 12
000
FTUS43 KMPX 120500
TAFAXN
TAF
KAXN 120520Z 1206/1306 33003KT P6SM SCT050 BKN100
     FM121200 32005KT P6SM SCT050 BKN150
     FM121800 32006KT P6SM BKN050
     FM130000 VRB02KT P6SM SKC=

USA.gov is the U.S. government's official web portal to all federal, state and local government web resources and services.